Aérodrome :
LOGIN :

S'inscrire | Disclaimer

   EN    FR    IT 

 










Légende :    VFR   VFR Marginal   IFR   IFR Intensif   IFR Très Intensif
Visi : 
Plafond : 
>= 8 km
>= 3000ft
5 à 8 km
1000 à 3000 ft
1500m à 5 km
500 à 1000 ft
800 à 1500m
200 à 500 ft
< 800m
< 200 ft
Symboles :   Orages  Brouillard  Fortes neiges  Fortes précipitations  Vent > 20 kt
SIGMETs :   Divers  Orages  Givrage  Turbulence  Onde Orograph.  Cendres Volcan.






- Altitude de l'aérodrome : 776 ft
- Code IATA : RMS


ETAR - Ramstein Air Base

DERNIER METAR :
  • 280756Z AUTO 00000KT 9999 BKN035 OVC060 13/05 A3017 RMK AO2 SLP218 T01340048 $

METARs EXPIRÉS :
  • 280656Z AUTO 27004KT 9999 CLR 13/04 A3017 RMK AO2 SLP217 T01270041 $
  • 280556Z AUTO 28004KT 9999 CLR 10/06 A3018 RMK AO2 SLP222 T00990055 10102 20025 52005 $

TAF TAF ETAR
Valide du 28 à 02h jusqu'au 29 à 08h UTC


280200Z 2802/2908 VRB06KT 9999 FEW060 QNH3015INS
BECMG 2807/2808 28010G15KT 9999 SCT040 QNH3011INS
BECMG 2811/2812 32009KT 9999 SCT030 QNH3003INS
BECMG 2817/2818 VRB06KT 9999 SCT045 BKN070 QNH2996INS
BECMG 2905/2906 35009KT 9999 SCT030 QNH2994INS TX17/2814Z TN04/2804Z



MET'MAP, la Météo Aéronautique d'un coup d'oeil ! - Copyright ORBIFLY Décembre 2007 - Disclaimer

ORBIFLY MET'MAP TEAM :

Programmation & Développement : Alexandra Zaïnal
Sur une idée originale de : Baudouin d'Aumeries
Soutien technique & logistique : Manuel Goepfert
Assistance : Marc-Olivier Méhu

Contact : metmap@orbifly.com




SOURCES & CREDITS :

   NOAA